Time;durP1;ratioP1;P1;durP2;ratioP2;P2;SDS_P1;SDS_P2;PMS_P1;PMS_P2;Temp;Humidity;BMP_temperature;BMP_pressure;BME280_temperature;BME280_humidity;BME280_pressure;Samples;Min_cycle;Max_cycle;Signal;HPM_P1;HPM_P2
2023/09/28 00:00:37;;;;;;;8.93;7.20;;;18.20;99.90;;;;;;5031722;28;20054;-84
2023/09/28 00:03:08;;;;;;;10.07;7.80;;;18.10;99.90;;;;;;5032038;28;20045;-84
2023/09/28 00:05:34;;;;;;;9.65;8.13;;;18.10;99.90;;;;;;5040303;28;20633;-85
2023/09/28 00:08:00;;;;;;;10.52;8.30;;;18.10;99.90;;;;;;5031300;28;20086;-85
2023/09/28 00:10:26;;;;;;;9.38;7.85;;;18.10;99.90;;;;;;5028487;28;20048;-85
2023/09/28 00:12:53;;;;;;;12.20;8.18;;;18.00;99.90;;;;;;5037431;28;20051;-85
2023/09/28 00:15:20;;;;;;;10.70;8.95;;;18.00;99.90;;;;;;5026142;28;20054;-85
2023/09/28 00:17:47;;;;;;;10.30;8.38;;;18.00;99.90;;;;;;5026771;28;20621;-86
2023/09/28 00:20:18;;;;;;;9.90;8.30;;;17.90;99.90;;;;;;5030548;28;20110;-84
2023/09/28 00:22:48;;;;;;;11.07;7.85;;;17.90;99.90;;;;;;5030281;28;20093;-85
2023/09/28 00:25:16;;;;;;;9.80;7.78;;;17.90;99.90;;;;;;5028431;28;20404;-85
2023/09/28 00:27:46;;;;;;;9.55;7.70;;;17.80;99.90;;;;;;5030470;28;20032;-85
2023/09/28 00:30:15;;;;;;;8.85;7.95;;;17.80;99.90;;;;;;5031862;28;20052;-85
2023/09/28 00:32:43;;;;;;;11.30;8.20;;;17.80;99.90;;;;;;5028981;28;20036;-85
2023/09/28 00:35:10;;;;;;;9.57;8.15;;;17.80;99.90;;;;;;5030452;28;20048;-85
2023/09/28 00:37:36;;;;;;;9.70;7.88;;;17.80;99.90;;;;;;5027781;28;20105;-85
2023/09/28 00:40:15;;;;;;;9.25;7.95;;;17.80;99.90;;;;;;5028445;28;20416;-85
2023/09/28 00:42:41;;;;;;;9.23;8.10;;;17.80;99.90;;;;;;5029042;28;20041;-85
2023/09/28 00:45:08;;;;;;;9.25;7.18;;;17.80;99.90;;;;;;5038638;28;20116;-85
2023/09/28 00:47:41;;;;;;;9.20;7.43;;;17.90;99.90;;;;;;5043098;28;20040;-84
2023/09/28 00:50:10;;;;;;;12.63;8.27;;;17.80;99.90;;;;;;5028402;28;20049;-84
2023/09/28 00:52:38;;;;;;;8.20;7.30;;;17.80;99.90;;;;;;5038857;28;20455;-84
2023/09/28 00:55:05;;;;;;;9.95;7.30;;;17.90;99.90;;;;;;5044321;28;20051;-85
2023/09/28 00:57:33;;;;;;;9.55;8.48;;;17.90;99.90;;;;;;5038446;28;20474;-85
2023/09/28 01:00:25;;;;;;;9.02;7.43;;;17.80;99.90;;;;;;5027513;28;20044;-85
2023/09/28 01:02:53;;;;;;;8.18;7.32;;;17.80;99.90;;;;;;5043438;28;20101;-84
2023/09/28 01:05:27;;;;;;;9.55;6.95;;;17.80;99.90;;;;;;5060022;28;20037;-85
2023/09/28 01:07:55;;;;;;;7.90;6.65;;;17.90;99.90;;;;;;5025104;28;20483;-85
2023/09/28 01:10:24;;;;;;;9.00;7.68;;;17.80;99.90;;;;;;5027426;28;20067;-85
2023/09/28 01:12:50;;;;;;;7.90;7.10;;;17.80;99.90;;;;;;5044227;28;20129;-85
2023/09/28 01:15:16;;;;;;;6.88;6.18;;;17.80;99.90;;;;;;5034519;28;20084;-85
2023/09/28 01:17:43;;;;;;;10.57;6.38;;;17.90;99.90;;;;;;5042496;28;20398;-85
2023/09/28 01:20:17;;;;;;;7.45;6.22;;;17.90;99.90;;;;;;5024590;28;20148;-85
2023/09/28 01:22:45;;;;;;;7.57;6.30;;;17.90;99.90;;;;;;5036673;28;20500;-85
2023/09/28 01:25:15;;;;;;;7.13;6.25;;;17.90;99.90;;;;;;5038018;28;20474;-85
2023/09/28 01:27:44;;;;;;;6.68;5.97;;;17.90;99.90;;;;;;5028098;28;20106;-85
2023/09/28 01:30:11;;;;;;;9.10;6.47;;;17.90;99.90;;;;;;5023689;28;20086;-85
2023/09/28 01:32:38;;;;;;;7.80;5.90;;;17.90;99.90;;;;;;5040880;28;20392;-84
2023/09/28 01:35:07;;;;;;;7.68;6.07;;;17.90;99.90;;;;;;5026781;28;20052;-84
2023/09/28 01:38:00;;;;;;;6.47;5.28;;;17.90;99.90;;;;;;5028600;28;20056;-85
2023/09/28 01:40:26;;;;;;;8.90;6.15;;;17.90;99.90;;;;;;5040303;28;20048;-84
2023/09/28 01:42:53;;;;;;;7.00;5.50;;;18.00;99.90;;;;;;5024555;28;20142;-85
2023/09/28 01:45:19;;;;;;;9.40;5.07;;;17.90;99.90;;;;;;5034547;28;20033;-85
2023/09/28 01:47:44;;;;;;;7.50;5.25;;;18.00;99.90;;;;;;5043872;28;20449;-84
2023/09/28 01:50:10;;;;;;;6.30;5.70;;;17.90;99.90;;;;;;5025424;28;20043;-85
2023/09/28 01:52:36;;;;;;;5.78;5.25;;;17.90;99.90;;;;;;5042325;28;20109;-85
2023/09/28 01:55:02;;;;;;;8.82;5.43;;;17.90;99.90;;;;;;5036506;28;20033;-84
2023/09/28 01:57:28;;;;;;;6.70;5.03;;;17.90;99.90;;;;;;5024860;28;20385;-85
2023/09/28 01:59:53;;;;;;;6.18;5.22;;;17.90;99.90;;;;;;5029718;28;20041;-85
2023/09/28 02:02:21;;;;;;;7.00;5.57;;;17.80;99.90;;;;;;5026728;28;20047;-84
2023/09/28 02:04:47;;;;;;;9.05;5.65;;;17.90;99.90;;;;;;5038037;28;20322;-85
2023/09/28 02:07:13;;;;;;;5.95;5.22;;;17.80;99.90;;;;;;5028682;28;20199;-85
2023/09/28 02:09:39;;;;;;;6.10;5.03;;;17.80;99.90;;;;;;5042126;28;20123;-85
2023/09/28 02:12:06;;;;;;;9.18;5.57;;;17.80;99.90;;;;;;5039087;28;20055;-85
2023/09/28 02:14:33;;;;;;;6.43;5.70;;;17.80;99.90;;;;;;5028450;28;20124;-84
2023/09/28 02:16:58;;;;;;;6.75;5.18;;;17.80;99.90;;;;;;5023664;28;20415;-84
2023/09/28 02:19:24;;;;;;;8.00;5.55;;;17.70;99.90;;;;;;5050789;28;20041;-84
2023/09/28 02:21:51;;;;;;;6.53;5.07;;;17.60;99.90;;;;;;5025313;28;20403;-85
2023/09/28 02:24:17;;;;;;;7.75;5.32;;;17.60;99.90;;;;;;5027623;28;20530;-85
2023/09/28 02:26:44;;;;;;;5.93;5.18;;;17.60;99.90;;;;;;5026334;28;20048;-85
2023/09/28 02:29:11;;;;;;;6.95;5.45;;;17.50;99.90;;;;;;5026211;28;20048;-84
2023/09/28 02:31:41;;;;;;;9.02;5.97;;;17.50;99.90;;;;;;5041452;28;20040;-84
2023/09/28 02:34:07;;;;;;;6.43;5.20;;;17.50;99.90;;;;;;5024287;28;20060;-85
2023/09/28 02:36:33;;;;;;;6.13;5.03;;;17.40;99.90;;;;;;5038942;28;20046;-84
2023/09/28 02:38:59;;;;;;;7.93;5.85;;;17.40;99.90;;;;;;5025818;28;20044;-85
2023/09/28 02:41:31;;;;;;;7.93;5.45;;;17.40;99.90;;;;;;5021741;28;20049;-85
2023/09/28 02:43:57;;;;;;;8.20;5.50;;;17.30;99.90;;;;;;5025360;28;20156;-84
2023/09/28 02:46:25;;;;;;;6.90;5.70;;;17.30;99.90;;;;;;5022273;28;20040;-84
2023/09/28 02:48:51;;;;;;;6.63;5.78;;;17.30;99.90;;;;;;5026783;28;20052;-85
2023/09/28 02:51:17;;;;;;;7.40;5.85;;;17.30;99.90;;;;;;5034935;28;20110;-85
2023/09/28 02:53:46;;;;;;;8.73;5.65;;;17.20;99.90;;;;;;5035264;28;20128;-84
2023/09/28 02:56:15;;;;;;;6.57;5.35;;;17.20;99.90;;;;;;5022785;28;20048;-85
2023/09/28 02:58:40;;;;;;;8.18;5.90;;;17.20;99.90;;;;;;5026128;28;20029;-84
2023/09/28 03:01:08;;;;;;;7.28;5.93;;;17.00;99.90;;;;;;5024600;28;20043;-84
2023/09/28 03:03:34;;;;;;;8.75;5.90;;;17.00;99.90;;;;;;5024307;28;20570;-85
2023/09/28 03:06:06;;;;;;;7.55;5.68;;;17.00;99.90;;;;;;5024734;28;20379;-85
2023/09/28 03:08:31;;;;;;;8.82;5.93;;;17.00;99.90;;;;;;5036425;28;20518;-85
2023/09/28 03:10:58;;;;;;;7.78;6.18;;;17.00;99.90;;;;;;5025988;28;20844;-84
2023/09/28 03:13:25;;;;;;;7.85;5.80;;;16.90;99.90;;;;;;5024556;28;20040;-85
2023/09/28 03:15:51;;;;;;;6.82;6.10;;;16.90;99.90;;;;;;5036713;28;20496;-85
2023/09/28 03:18:17;;;;;;;8.32;6.18;;;16.90;99.90;;;;;;5035533;28;20032;-85
2023/09/28 03:20:44;;;;;;;7.15;6.07;;;16.80;99.90;;;;;;5025495;28;20036;-85
2023/09/28 03:23:13;;;;;;;7.78;6.07;;;16.80;99.90;;;;;;5037919;28;20472;-84
2023/09/28 03:25:39;;;;;;;9.68;6.72;;;16.80;99.90;;;;;;5022815;28;20044;-84
2023/09/28 03:28:06;;;;;;;9.05;6.70;;;16.80;99.90;;;;;;5026429;28;20179;-84
2023/09/28 03:30:32;;;;;;;8.68;6.80;;;16.80;99.90;;;;;;5025588;28;20025;-84
2023/09/28 03:32:58;;;;;;;8.70;6.53;;;16.70;99.90;;;;;;5035107;28;20578;-84
2023/09/28 03:35:24;;;;;;;9.80;6.43;;;16.70;99.90;;;;;;5037718;28;20043;-85
2023/09/28 03:37:54;;;;;;;9.50;6.65;;;16.70;99.90;;;;;;5038935;28;20040;-84
2023/09/28 03:40:20;;;;;;;9.50;6.38;;;16.70;99.90;;;;;;5027114;28;20056;-84
2023/09/28 03:42:50;;;;;;;9.40;6.63;;;16.60;99.90;;;;;;5035203;28;20032;-84
2023/09/28 03:45:20;;;;;;;10.05;6.72;;;16.60;99.90;;;;;;5019833;28;20300;-84
2023/09/28 03:47:48;;;;;;;10.57;7.22;;;16.50;99.90;;;;;;5021980;28;20040;-84
2023/09/28 03:50:14;;;;;;;13.93;7.65;;;16.50;99.90;;;;;;5036965;28;20049;-84
2023/09/28 03:52:41;;;;;;;8.52;7.20;;;16.40;99.90;;;;;;5038617;28;20047;-84
2023/09/28 03:55:12;;;;;;;8.98;7.13;;;16.40;99.90;;;;;;5033899;28;20041;-84
2023/09/28 03:57:38;;;;;;;12.43;7.05;;;16.40;99.90;;;;;;5027392;28;20359;-84
2023/09/28 04:00:14;;;;;;;9.60;6.70;;;16.30;99.90;;;;;;5024934;28;20045;-85
2023/09/28 04:02:51;;;;;;;10.55;7.03;;;16.30;99.90;;;;;;5040786;28;20127;-84
2023/09/28 04:05:16;;;;;;;10.85;7.85;;;16.30;99.90;;;;;;5034036;28;20520;-84
2023/09/28 04:07:43;;;;;;;8.50;7.10;;;16.20;99.90;;;;;;5026812;28;20086;-84
2023/09/28 04:10:10;;;;;;;9.40;7.22;;;16.20;99.90;;;;;;5029815;28;20453;-84
2023/09/28 04:12:36;;;;;;;9.40;7.88;;;16.20;99.90;;;;;;5024881;28;20041;-85
2023/09/28 04:15:03;;;;;;;10.25;7.60;;;16.10;99.90;;;;;;5025058;28;20044;-85
2023/09/28 04:17:29;;;;;;;10.40;7.22;;;16.10;99.90;;;;;;5025956;28;20048;-84
2023/09/28 04:19:55;;;;;;;11.48;6.88;;;16.00;99.90;;;;;;5025213;28;20036;-84
2023/09/28 04:22:21;;;;;;;11.68;8.30;;;16.00;99.90;;;;;;5038663;28;20115;-85
2023/09/28 04:24:46;;;;;;;10.43;7.90;;;16.00;99.90;;;;;;5039936;28;20024;-85
2023/09/28 04:27:12;;;;;;;10.13;7.82;;;16.00;99.90;;;;;;5027280;28;20056;-84
2023/09/28 04:29:39;;;;;;;11.63;7.78;;;15.90;99.90;;;;;;5023758;28;20216;-84
2023/09/28 04:32:05;;;;;;;10.43;8.40;;;15.90;99.90;;;;;;5036696;28;20106;-85
2023/09/28 04:34:31;;;;;;;11.20;8.65;;;15.90;99.90;;;;;;5027606;28;20124;-84
2023/09/28 04:36:57;;;;;;;12.15;8.32;;;15.80;99.90;;;;;;5023997;28;20131;-85
2023/09/28 04:39:24;;;;;;;11.23;8.50;;;15.80;99.90;;;;;;5034385;28;20054;-85
2023/09/28 04:41:58;;;;;;;13.60;8.95;;;15.80;99.90;;;;;;5040305;28;20415;-84
2023/09/28 04:44:24;;;;;;;10.73;8.90;;;15.80;99.90;;;;;;5025515;28;20040;-85
2023/09/28 04:46:50;;;;;;;10.80;8.68;;;15.80;99.90;;;;;;5025234;28;20036;-84
2023/09/28 04:49:20;;;;;;;12.50;9.25;;;15.70;99.90;;;;;;5024787;28;20040;-84
2023/09/28 04:51:46;;;;;;;12.15;9.25;;;15.70;99.90;;;;;;5038420;28;20378;-84
2023/09/28 04:54:12;;;;;;;14.07;10.25;;;15.70;99.90;;;;;;5026825;28;20120;-85
2023/09/28 04:56:39;;;;;;;12.75;8.95;;;15.60;99.90;;;;;;5032901;28;20182;-84
2023/09/28 04:59:04;;;;;;;11.23;9.10;;;15.60;99.90;;;;;;5022163;28;20051;-85
2023/09/28 05:01:31;;;;;;;10.02;8.60;;;15.70;99.90;;;;;;5040917;28;20024;-84
2023/09/28 05:03:56;;;;;;;11.82;9.27;;;15.60;99.90;;;;;;5025427;28;20043;-84
2023/09/28 05:06:22;;;;;;;11.90;9.10;;;15.60;99.90;;;;;;5033974;28;20044;-84
2023/09/28 05:08:49;;;;;;;10.50;8.75;;;15.60;99.90;;;;;;5041104;28;20071;-84
2023/09/28 05:11:15;;;;;;;11.65;9.27;;;15.60;99.90;;;;;;5038017;28;20180;-84
2023/09/28 05:13:41;;;;;;;14.77;9.27;;;15.60;99.90;;;;;;5027514;28;20062;-84
2023/09/28 05:16:07;;;;;;;11.07;9.15;;;15.60;99.90;;;;;;5026743;28;20491;-84
2023/09/28 05:18:33;;;;;;;13.00;8.75;;;15.60;99.90;;;;;;5028635;28;20033;-85
2023/09/28 05:20:58;;;;;;;14.02;9.35;;;15.60;99.90;;;;;;5029462;28;20028;-84
2023/09/28 05:23:25;;;;;;;12.15;8.93;;;15.70;99.90;;;;;;5027676;28;20043;-85
2023/09/28 05:25:51;;;;;;;12.23;8.90;;;15.60;99.90;;;;;;5037259;28;20079;-85
2023/09/28 05:28:16;;;;;;;12.10;8.75;;;15.60;99.90;;;;;;5041429;28;20045;-84
2023/09/28 05:30:42;;;;;;;11.50;8.88;;;15.60;99.90;;;;;;5028560;28;20033;-85
2023/09/28 05:33:08;;;;;;;11.18;8.50;;;15.50;99.90;;;;;;5017998;28;20037;-84
2023/09/28 05:35:33;;;;;;;12.13;8.70;;;15.50;99.90;;;;;;5027964;28;20045;-84
2023/09/28 05:38:02;;;;;;;11.75;9.18;;;15.50;99.90;;;;;;5023667;28;20072;-85
2023/09/28 05:40:28;;;;;;;11.68;8.40;;;15.50;99.90;;;;;;5023902;28;20126;-84
2023/09/28 05:42:54;;;;;;;11.13;8.50;;;15.60;99.90;;;;;;5028782;28;20036;-84
2023/09/28 05:45:20;;;;;;;11.23;8.60;;;15.60;99.90;;;;;;5040842;28;20029;-84
2023/09/28 05:47:47;;;;;;;13.38;8.52;;;15.70;99.90;;;;;;5030197;28;20105;-84
2023/09/28 05:50:13;;;;;;;11.25;8.02;;;15.70;99.90;;;;;;5029294;28;20044;-85
2023/09/28 05:52:39;;;;;;;15.63;8.13;;;15.60;99.90;;;;;;5038490;28;20036;-84
2023/09/28 05:55:05;;;;;;;15.35;8.20;;;15.60;99.90;;;;;;5026113;28;20041;-84
2023/09/28 05:57:31;;;;;;;11.80;8.20;;;15.70;99.90;;;;;;5034938;28;20067;-84
2023/09/28 05:59:56;;;;;;;10.15;7.82;;;15.60;99.90;;;;;;5028046;28;20116;-84
2023/09/28 06:02:22;;;;;;;13.55;7.50;;;15.60;99.90;;;;;;5038273;28;20037;-84
2023/09/28 06:04:48;;;;;;;9.35;7.07;;;15.60;99.90;;;;;;5026252;28;20044;-85
2023/09/28 06:07:13;;;;;;;16.35;6.80;;;15.70;99.90;;;;;;5034514;28;20058;-84
2023/09/28 06:09:40;;;;;;;15.25;6.43;;;15.80;99.90;;;;;;5031069;28;20063;-84
2023/09/28 06:12:06;;;;;;;16.60;6.13;;;15.80;99.90;;;;;;5022268;28;20041;-84
2023/09/28 06:14:33;;;;;;;12.55;6.13;;;15.90;99.90;;;;;;5037454;28;20037;-84
2023/09/28 06:17:00;;;;;;;10.45;5.60;;;15.90;99.90;;;;;;5034369;28;20033;-84
2023/09/28 06:19:26;;;;;;;11.82;5.72;;;15.90;99.90;;;;;;5029120;28;20370;-84
2023/09/28 06:21:52;;;;;;;11.27;4.93;;;16.00;99.90;;;;;;5024731;28;20040;-85
2023/09/28 06:24:18;;;;;;;11.02;4.95;;;16.00;99.90;;;;;;5023779;28;20456;-84
2023/09/28 06:26:44;;;;;;;8.90;5.47;;;16.00;99.90;;;;;;5035598;28;20466;-84
2023/09/28 06:29:11;;;;;;;12.20;5.28;;;16.10;99.90;;;;;;5041753;28;20036;-84
2023/09/28 06:31:37;;;;;;;10.63;5.22;;;16.20;99.90;;;;;;5030390;28;20124;-84
2023/09/28 06:34:02;;;;;;;11.70;5.80;;;16.30;99.90;;;;;;5040478;28;20495;-84
2023/09/28 06:36:29;;;;;;;12.13;5.78;;;16.40;99.90;;;;;;5024491;28;20052;-84
2023/09/28 06:38:55;;;;;;;11.95;5.65;;;16.40;99.90;;;;;;5034332;28;20132;-84
2023/09/28 06:41:21;;;;;;;12.60;5.05;;;16.50;99.90;;;;;;5027657;28;20442;-84
2023/09/28 06:43:48;;;;;;;9.88;5.55;;;16.60;99.90;;;;;;5023731;28;20047;-84
2023/09/28 06:46:14;;;;;;;6.53;4.53;;;16.60;99.90;;;;;;5027250;28;20280;-84
2023/09/28 06:48:45;;;;;;;8.18;5.15;;;16.70;99.90;;;;;;5027726;28;20087;-84
2023/09/28 06:51:11;;;;;;;10.70;5.07;;;16.70;99.90;;;;;;5024081;28;20044;-84
2023/09/28 06:53:38;;;;;;;11.35;4.88;;;16.70;99.90;;;;;;5028810;28;20102;-84
2023/09/28 06:56:04;;;;;;;10.40;5.22;;;16.70;99.90;;;;;;5038803;28;20566;-84
2023/09/28 06:58:30;;;;;;;10.00;5.40;;;16.70;99.90;;;;;;5018988;28;20116;-84
2023/09/28 07:00:58;;;;;;;8.18;4.93;;;16.70;99.90;;;;;;5037671;28;20120;-84
2023/09/28 07:03:24;;;;;;;9.63;5.15;;;16.80;99.90;;;;;;5042051;28;20318;-84
2023/09/28 07:05:49;;;;;;;9.63;5.85;;;16.80;99.90;;;;;;5029279;28;20033;-84
2023/09/28 07:08:15;;;;;;;14.60;5.72;;;16.90;99.90;;;;;;5025028;28;20044;-84
2023/09/28 07:10:41;;;;;;;12.10;5.25;;;17.00;99.90;;;;;;5025098;28;20037;-85
2023/09/28 07:13:07;;;;;;;14.38;5.20;;;17.00;99.90;;;;;;5033415;28;20424;-85
2023/09/28 07:15:34;;;;;;;10.18;4.80;;;17.10;99.90;;;;;;5028057;28;20037;-85
2023/09/28 07:18:03;;;;;;;12.98;5.30;;;17.30;99.90;;;;;;5019760;28;20044;-84
2023/09/28 07:20:30;;;;;;;11.02;4.85;;;17.30;99.90;;;;;;5023982;28;20443;-85
2023/09/28 07:22:56;;;;;;;12.80;4.70;;;17.30;99.90;;;;;;5028214;28;20033;-84
2023/09/28 07:25:21;;;;;;;13.90;4.45;;;17.20;99.90;;;;;;5026355;28;20041;-85
2023/09/28 07:27:50;;;;;;;11.27;4.28;;;17.30;99.90;;;;;;5036524;28;20037;-84
2023/09/28 07:30:19;;;;;;;16.20;4.00;;;17.30;99.90;;;;;;5034656;28;20087;-85
2023/09/28 07:32:46;;;;;;;18.05;4.30;;;17.40;99.90;;;;;;5037527;28;20385;-83
2023/09/28 07:35:12;;;;;;;11.07;4.20;;;17.40;99.90;;;;;;5040114;28;20115;-84
2023/09/28 07:37:39;;;;;;;12.38;3.95;;;17.50;99.90;;;;;;5035947;28;20527;-85
2023/09/28 07:40:08;;;;;;;18.58;4.38;;;17.50;99.90;;;;;;5027741;28;20125;-84
2023/09/28 07:42:34;;;;;;;19.35;4.00;;;17.60;99.90;;;;;;5037833;28;20784;-84
2023/09/28 07:44:59;;;;;;;23.52;4.78;;;17.70;99.90;;;;;;5024872;28;20098;-84
2023/09/28 07:47:25;;;;;;;20.15;4.00;;;17.80;99.90;;;;;;5023748;28;20467;-84
2023/09/28 07:49:52;;;;;;;23.05;5.18;;;17.90;99.90;;;;;;5018076;28;20040;-84
2023/09/28 07:52:18;;;;;;;16.20;4.13;;;17.90;99.90;;;;;;5026527;28;20578;-85
2023/09/28 07:54:44;;;;;;;30.60;4.82;;;18.00;99.90;;;;;;5034883;28;20254;-84
2023/09/28 07:57:10;;;;;;;19.13;4.55;;;18.00;99.90;;;;;;5020381;28;20162;-84
2023/09/28 07:59:36;;;;;;;16.50;3.85;;;18.10;99.90;;;;;;5025263;28;20025;-84
2023/09/28 08:02:04;;;;;;;14.20;3.63;;;18.30;99.90;;;;;;5039549;28;20104;-84
2023/09/28 08:04:30;;;;;;;16.83;3.90;;;18.50;99.90;;;;;;5025404;28;20198;-84
2023/09/28 08:06:57;;;;;;;22.63;4.00;;;18.60;99.90;;;;;;5033807;28;20037;-84
2023/09/28 08:09:23;;;;;;;16.45;4.13;;;18.60;99.90;;;;;;5027889;28;20065;-85
2023/09/28 08:11:49;;;;;;;22.88;4.90;;;18.70;99.90;;;;;;5031926;28;20045;-84
2023/09/28 08:14:16;;;;;;;15.07;4.38;;;18.80;99.90;;;;;;5023661;28;20434;-84
2023/09/28 08:16:44;;;;;;;20.15;4.20;;;18.90;99.90;;;;;;5023147;28;20110;-85
2023/09/28 08:19:10;;;;;;;19.38;4.22;;;18.80;99.90;;;;;;5016684;28;20033;-84
2023/09/28 08:21:38;;;;;;;21.45;4.07;;;18.80;99.90;;;;;;5022312;28;20064;-84
2023/09/28 08:24:08;;;;;;;19.48;4.03;;;18.90;99.90;;;;;;5040946;28;20049;-85
2023/09/28 08:26:34;;;;;;;16.83;4.75;;;19.00;99.90;;;;;;5028128;28;20060;-84
2023/09/28 08:29:01;;;;;;;15.40;3.85;;;19.30;99.90;;;;;;5031476;28;20040;-85
2023/09/28 08:31:30;;;;;;;17.70;3.78;;;19.50;99.90;;;;;;5025534;28;20118;-85
2023/09/28 08:33:58;;;;;;;17.27;4.15;;;19.40;99.90;;;;;;5030193;28;20048;-85
2023/09/28 08:36:24;;;;;;;18.73;4.03;;;19.40;99.90;;;;;;5041388;28;20098;-84
2023/09/28 08:38:50;;;;;;;18.00;4.43;;;19.70;99.90;;;;;;5030858;28;20041;-85
2023/09/28 08:41:43;;;;;;;20.23;4.40;;;19.70;99.90;;;;;;5028611;28;20572;-86
2023/09/28 08:44:12;;;;;;;21.20;4.53;;;19.50;99.90;;;;;;5030135;28;20256;-85
2023/09/28 08:46:39;;;;;;;12.63;3.40;;;19.50;99.90;;;;;;5044504;28;20040;-85
2023/09/28 08:49:10;;;;;;;18.30;4.22;;;19.50;99.90;;;;;;5044750;28;20522;-86
2023/09/28 08:51:38;;;;;;;21.40;4.93;;;19.50;99.90;;;;;;5053588;28;20468;-85
2023/09/28 08:54:05;;;;;;;22.60;4.07;;;19.40;99.90;;;;;;5038931;28;20052;-85
2023/09/28 08:56:37;;;;;;;14.70;3.17;;;19.40;99.90;;;;;;5041051;28;20058;-85
2023/09/28 08:59:04;;;;;;;17.42;4.47;;;19.50;99.90;;;;;;5039439;28;20288;-85
2023/09/28 09:01:31;;;;;;;16.50;4.35;;;19.60;99.90;;;;;;5022051;28;20116;-84
2023/09/28 09:03:57;;;;;;;13.82;3.10;;;19.50;99.90;;;;;;5031749;28;20228;-85
2023/09/28 09:06:28;;;;;;;16.50;3.83;;;19.60;99.90;;;;;;5022992;28;20132;-84
2023/09/28 09:08:57;;;;;;;18.67;4.32;;;20.00;99.90;;;;;;5024346;28;20125;-84
2023/09/28 09:11:24;;;;;;;16.52;3.75;;;20.10;99.90;;;;;;5028883;28;20189;-85
2023/09/28 09:13:54;;;;;;;15.85;4.45;;;20.00;99.90;;;;;;5029441;28;20033;-84
2023/09/28 09:16:27;;;;;;;22.75;3.83;;;20.10;99.90;;;;;;5043995;28;20041;-86
2023/09/28 09:18:53;;;;;;;19.67;4.05;;;19.90;99.90;;;;;;5039440;28;20112;-84
2023/09/28 09:21:21;;;;;;;14.10;3.30;;;19.80;99.90;;;;;;5028132;28;20204;-85
2023/09/28 09:24:04;;;;;;;18.30;3.63;;;19.90;99.90;;;;;;5040262;28;20367;-85
2023/09/28 09:26:59;;;;;;;11.52;3.95;;;19.80;99.90;;;;;;5046419;28;20434;-85
2023/09/28 09:29:25;;;;;;;15.93;3.88;;;19.80;99.90;;;;;;5014749;28;20055;-85
2023/09/28 09:31:51;;;;;;;17.25;4.45;;;19.90;99.90;;;;;;5041731;28;20392;-85
2023/09/28 09:34:21;;;;;;;20.05;3.72;;;19.90;99.90;;;;;;5042181;28;20048;-85
2023/09/28 09:36:57;;;;;;;18.85;4.07;;;19.80;99.90;;;;;;5038558;28;20050;-85
2023/09/28 09:39:29;;;;;;;18.58;3.92;;;19.90;99.90;;;;;;5029611;28;20648;-85
2023/09/28 09:41:56;;;;;;;13.52;3.70;;;20.00;99.90;;;;;;5021626;28;20037;-84
2023/09/28 09:44:24;;;;;;;16.95;3.72;;;19.70;99.90;;;;;;5033054;28;20105;-85
2023/09/28 09:46:52;;;;;;;16.55;4.00;;;19.90;99.90;;;;;;5041413;28;20079;-85
2023/09/28 09:49:19;;;;;;;18.70;3.60;;;19.90;99.90;;;;;;5039499;28;20514;-85
2023/09/28 09:51:45;;;;;;;16.95;3.75;;;19.80;99.90;;;;;;5023771;28;20056;-85
2023/09/28 09:54:16;;;;;;;18.65;3.67;;;20.00;99.90;;;;;;5037235;28;20523;-85
2023/09/28 09:56:51;;;;;;;15.23;3.42;;;20.10;99.90;;;;;;5016543;28;20459;-85
2023/09/28 09:59:19;;;;;;;13.68;3.92;;;20.10;99.90;;;;;;5047195;28;20691;-85
2023/09/28 10:01:48;;;;;;;18.02;3.97;;;19.90;99.90;;;;;;5027027;28;20033;-85
2023/09/28 10:04:18;;;;;;;12.98;3.40;;;19.90;99.90;;;;;;5027183;28;20503;-84
2023/09/28 10:06:52;;;;;;;13.68;2.97;;;20.20;99.90;;;;;;5028455;28;20515;-85
2023/09/28 10:09:21;;;;;;;14.68;3.75;;;20.30;99.90;;;;;;5044866;28;20052;-85
2023/09/28 10:11:49;;;;;;;13.02;3.40;;;20.20;99.90;;;;;;5035601;28;20075;-85
2023/09/28 10:14:18;;;;;;;16.30;3.58;;;20.30;99.90;;;;;;5027728;28;20064;-85
2023/09/28 10:16:44;;;;;;;13.00;3.05;;;20.40;99.90;;;;;;5049706;28;20037;-85
2023/09/28 10:19:15;;;;;;;22.83;3.40;;;20.30;99.90;;;;;;5030889;28;20032;-86
2023/09/28 10:21:41;;;;;;;21.65;4.07;;;20.50;99.90;;;;;;5035431;28;20121;-85
2023/09/28 10:24:20;;;;;;;13.07;3.80;;;20.40;99.90;;;;;;5045195;28;20475;-85
2023/09/28 10:26:51;;;;;;;14.98;3.38;;;20.50;99.90;;;;;;5036825;28;20041;-85
2023/09/28 10:29:23;;;;;;;20.30;4.28;;;20.60;99.90;;;;;;5037766;28;20090;-84
2023/09/28 10:31:53;;;;;;;16.52;4.25;;;20.50;99.90;;;;;;5023885;28;20041;-85
2023/09/28 10:34:20;;;;;;;12.68;3.20;;;20.60;99.90;;;;;;5034437;28;20079;-85
2023/09/28 10:37:05;;;;;;;15.20;3.13;;;20.40;99.90;;;;;;5039466;28;20051;-85
2023/09/28 10:39:32;;;;;;;14.93;3.70;;;20.40;99.90;;;;;;5021879;28;20040;-85
2023/09/28 10:42:05;;;;;;;17.27;3.80;;;20.30;99.90;;;;;;5023157;28;20348;-85
2023/09/28 10:44:32;;;;;;;13.35;3.17;;;20.20;99.90;;;;;;5028892;28;20036;-84
2023/09/28 10:46:58;;;;;;;13.52;3.45;;;20.40;99.90;;;;;;5040614;28;20075;-85
2023/09/28 10:49:24;;;;;;;18.45;3.83;;;20.10;99.90;;;;;;5036672;28;20495;-85
2023/09/28 10:51:51;;;;;;;15.93;3.55;;;20.00;99.90;;;;;;5042636;28;20115;-85
2023/09/28 10:54:18;;;;;;;10.45;3.15;;;20.00;99.90;;;;;;5026107;28;20235;-85
2023/09/28 10:56:48;;;;;;;15.07;3.55;;;20.00;99.90;;;;;;5038654;28;20420;-85
2023/09/28 10:59:15;;;;;;;18.58;3.90;;;20.00;99.90;;;;;;5026488;28;20546;-85
2023/09/28 11:01:48;;;;;;;18.65;3.47;;;20.00;99.90;;;;;;5042854;28;20033;-85
2023/09/28 11:04:15;;;;;;;15.27;3.97;;;20.00;99.90;;;;;;5043869;28;20553;-84
2023/09/28 11:06:43;;;;;;;14.02;4.10;;;20.20;99.90;;;;;;5032010;28;20045;-85
2023/09/28 11:09:09;;;;;;;16.33;3.83;;;20.30;99.90;;;;;;5040119;28;20086;-85
2023/09/28 11:11:37;;;;;;;16.13;3.97;;;20.40;99.90;;;;;;5035952;28;20440;-84
2023/09/28 11:14:05;;;;;;;18.00;3.65;;;20.30;99.90;;;;;;5025148;28;20440;-84
2023/09/28 11:16:34;;;;;;;20.45;3.80;;;20.30;99.90;;;;;;5029112;28;20164;-85
2023/09/28 11:19:00;;;;;;;15.30;3.65;;;20.60;99.90;;;;;;5026443;28;20434;-86
2023/09/28 11:21:26;;;;;;;14.75;3.60;;;20.60;99.90;;;;;;5037462;28;20040;-85
2023/09/28 11:23:52;;;;;;;16.38;3.83;;;20.70;99.90;;;;;;5027036;28;20365;-84
2023/09/28 11:26:22;;;;;;;19.27;3.78;;;20.60;99.90;;;;;;5024957;28;20060;-85
2023/09/28 11:28:50;;;;;;;14.88;3.90;;;20.60;99.90;;;;;;5042119;28;20049;-85
2023/09/28 11:31:16;;;;;;;14.80;3.38;;;20.60;99.90;;;;;;5024676;28;20547;-85
2023/09/28 11:33:44;;;;;;;14.63;3.17;;;20.40;99.90;;;;;;5026496;28;20115;-85
2023/09/28 11:36:14;;;;;;;16.42;4.30;;;20.60;99.90;;;;;;5031975;28;20111;-85
2023/09/28 11:38:41;;;;;;;17.70;3.80;;;20.60;99.90;;;;;;5037814;28;20032;-85
2023/09/28 11:41:06;;;;;;;12.35;3.13;;;20.40;99.90;;;;;;5027797;28;20098;-84
2023/09/28 11:43:46;;;;;;;11.85;2.80;;;20.40;99.90;;;;;;5050649;28;20029;-85
2023/09/28 11:46:12;;;;;;;15.35;4.03;;;20.40;99.90;;;;;;5042541;28;20070;-85
2023/09/28 11:48:38;;;;;;;17.45;3.72;;;20.40;99.90;;;;;;5025946;28;20040;-84
2023/09/28 11:51:05;;;;;;;20.20;4.20;;;20.30;99.90;;;;;;5025268;28;20106;-85
2023/09/28 11:53:31;;;;;;;19.25;3.47;;;20.50;99.90;;;;;;5038110;28;20040;-85
2023/09/28 11:55:59;;;;;;;12.27;3.30;;;20.40;99.90;;;;;;5038236;28;20043;-84
2023/09/28 11:58:25;;;;;;;15.15;3.13;;;20.60;99.90;;;;;;5036233;28;20163;-85
2023/09/28 12:00:50;;;;;;;14.77;3.47;;;21.00;99.90;;;;;;5019126;28;20423;-85
2023/09/28 12:03:16;;;;;;;17.10;3.90;;;21.00;99.90;;;;;;5028712;28;20037;-86
2023/09/28 12:05:42;;;;;;;15.15;3.38;;;21.20;99.90;;;;;;5034870;28;20044;-84
2023/09/28 12:08:08;;;;;;;17.13;3.47;;;21.20;99.90;;;;;;5028149;28;20036;-85
2023/09/28 12:10:33;;;;;;;13.85;3.05;;;21.20;99.90;;;;;;5025241;28;20033;-85
2023/09/28 12:13:00;;;;;;;17.40;4.13;;;21.10;99.90;;;;;;5031593;28;20475;-85
2023/09/28 12:15:25;;;;;;;13.38;2.75;;;20.90;99.90;;;;;;5026472;28;20377;-85
2023/09/28 12:17:51;;;;;;;21.45;3.28;;;21.10;99.90;;;;;;5032071;28;20147;-85
2023/09/28 12:20:17;;;;;;;16.80;3.67;;;21.20;99.90;;;;;;5044841;28;20041;-85
2023/09/28 12:22:45;;;;;;;15.02;3.83;;;21.30;99.90;;;;;;5032755;28;20039;-85
2023/09/28 12:25:13;;;;;;;16.63;2.78;;;21.20;99.90;;;;;;5034887;28;20059;-84
2023/09/28 12:27:39;;;;;;;15.55;3.40;;;21.10;99.90;;;;;;5022850;28;20181;-85
2023/09/28 12:30:06;;;;;;;12.73;3.13;;;21.00;99.90;;;;;;5027298;28;20033;-85
2023/09/28 12:32:32;;;;;;;19.02;3.30;;;20.80;99.90;;;;;;5036706;28;20037;-85
2023/09/28 12:35:01;;;;;;;12.77;3.25;;;20.80;99.90;;;;;;5025575;28;20044;-85
2023/09/28 12:37:27;;;;;;;15.80;2.97;;;20.60;99.90;;;;;;5036091;28;20048;-85
2023/09/28 12:39:53;;;;;;;17.55;3.40;;;20.50;99.90;;;;;;5024997;28;20052;-85
2023/09/28 12:42:24;;;;;;;11.82;2.78;;;20.50;99.90;;;;;;5043141;28;20446;-85